KCPR/CPR METAR and TAF weather

Enter ICAO airport designator
Station Type Date Time Source
KCPR METAR 2020/02/26 08:53 UTC NOAA

KCPR 260853Z AUTO 21018KT 10SM CLR M10/M15 A3030 RMK AO2 SLP322 T11001150 56020


Station Type Date Time Source
KCPR Decoded METAR 2020/02/26 08:53 UTC NOAA

NATRONA COUNTY INTERNATIONAL AIRPORT , WY, United States (KCPR) 42-54N 106-28W 1621M
Feb 26, 2020 - 03:53 AM EST / 2020.02.26 0853 UTC
Wind: from the SSW (210 degrees) at 21 MPH (18 KT):0
Visibility: 10 mile(s):0
Sky conditions: clear
Temperature: 14.0 F (-10.0 C)
Windchill: -4 F (-20 C):1
Dew Point: 5.0 F (-15.0 C)
Relative Humidity: 66%
Pressure (altimeter): 30.3 in. Hg (1026 hPa)
Pressure tendency: 0.06 inches (2.0 hPa) lower than three hours ago
ob: KCPR 260853Z AUTO 21018KT 10SM CLR M10/M15 A3030 RMK AO2 SLP322 T11001150 56020
cycle: 9

Station Type Date Time Source
KCPR TAF 2020/02/26 06:30 UTC NOAA

TAF KCPR 260528Z 2606/2706 24011KT P6SM SKC
FM261200 23014G24KT P6SM SCT090
FM261800 23019G29KT P6SM BKN090
FM270100 23012KT P6SM BKN080

Example: see airport list